Time;durP1;ratioP1;P1;durP2;ratioP2;P2;SDS_P1;SDS_P2;PMS_P1;PMS_P2;Temp;Humidity;BMP_temperature;BMP_pressure;BME280_temperature;BME280_humidity;BME280_pressure;Samples;Min_cycle;Max_cycle;Signal;HPM_P1;HPM_P2
2022/09/22 00:01:47;;;;;;;18.10;13.77;;;;;;;-150.27;100.00;61272.81;5212121;28;20033;-80
2022/09/22 00:04:19;;;;;;;17.40;12.57;;;;;;;-150.27;100.00;61272.81;5211306;28;20033;-76
2022/09/22 00:06:50;;;;;;;17.03;13.47;;;;;;;-150.27;100.00;61272.81;5193140;28;20049;-78
2022/09/22 00:09:22;;;;;;;15.00;13.30;;;;;;;-150.27;100.00;61272.81;5211536;28;20057;-80
2022/09/22 00:11:54;;;;;;;19.50;13.10;;;;;;;-150.27;100.00;61272.81;5211398;28;20838;-77
2022/09/22 00:14:27;;;;;;;15.67;12.40;;;;;;;-150.27;100.00;61272.81;5211727;28;20116;-81
2022/09/22 00:17:00;;;;;;;15.40;13.03;;;;;;;-150.27;100.00;61272.81;5194551;28;20061;-76
2022/09/22 00:19:35;;;;;;;19.57;12.67;;;;;;;-150.27;100.00;61272.81;5213094;28;20384;-79
2022/09/22 00:22:06;;;;;;;;;;;;;;;-150.27;100.00;61272.81;5221414;28;20030;-80
2022/09/22 00:24:37;;;;;;;15.97;13.30;;;;;;;-150.27;100.00;61272.81;5227141;28;19920;-73
2022/09/22 00:27:08;;;;;;;15.80;13.20;;;;;;;-150.27;100.00;61272.81;5221648;28;20026;-74
2022/09/22 00:29:40;;;;;;;25.43;13.90;;;;;;;-150.27;100.00;61272.81;5218662;28;20500;-79
2022/09/22 00:32:12;;;;;;;16.50;12.13;;;;;;;-150.27;100.00;61272.81;5226641;28;20064;-77
2022/09/22 00:34:44;;;;;;;15.60;13.13;;;;;;;-150.27;100.00;61272.81;5203118;28;20080;-83
2022/09/22 00:37:16;;;;;;;20.07;12.53;;;;;;;-150.27;100.00;61272.81;5213209;28;20030;-80
2022/09/22 00:39:47;;;;;;;16.30;13.47;;;;;;;-150.27;100.00;61272.81;5212623;28;20044;-81
2022/09/22 00:42:19;;;;;;;16.47;13.13;;;;;;;-150.27;100.00;61272.81;5212598;28;20026;-79
2022/09/22 00:44:51;;;;;;;14.73;13.23;;;;;;;-150.27;100.00;61272.81;5203088;28;20026;-81
2022/09/22 00:47:49;;;;;;;16.77;13.97;;;;;;;-150.27;100.00;61272.81;5195610;28;20503;-81
2022/09/22 00:50:23;;;;;;;16.77;13.53;;;;;;;-150.27;100.00;61272.81;5194115;28;20410;-79
2022/09/22 00:53:14;;;;;;;22.08;14.98;;;;;;;-150.27;100.00;61272.81;5206458;28;20061;-80
2022/09/22 00:55:50;;;;;;;19.57;13.97;;;;;;;-150.27;100.00;61272.81;5184306;28;20038;-77
2022/09/22 00:58:27;;;;;;;16.93;13.30;;;;;;;-150.27;100.00;61272.81;5214794;28;20030;-79
2022/09/22 01:00:59;;;;;;;21.10;14.10;;;;;;;-150.27;100.00;61272.81;5215293;28;20029;-75
2022/09/22 01:03:30;;;;;;;20.00;14.07;;;;;;;-150.27;100.00;61272.81;5214145;28;20061;-80
2022/09/22 01:06:05;;;;;;;18.03;13.20;;;;;;;-150.27;100.00;61272.81;5204613;28;20030;-74
2022/09/22 01:08:36;;;;;;;14.68;13.02;;;;;;;-150.27;100.00;61272.81;5176243;28;21224;-81
2022/09/22 01:11:08;;;;;;;19.57;13.97;;;;;;;-150.27;100.00;61272.81;5194433;28;20050;-79
2022/09/22 01:14:00;;;;;;;13.90;12.70;;;;;;;-150.27;100.00;61272.81;5218990;22;20100;-78
2022/09/22 01:16:49;;;;;;;16.07;14.27;;;;;;;-150.27;100.00;61272.81;5182206;28;20042;-81
2022/09/22 01:19:48;;;;;;;14.60;13.20;;;;;;;-150.27;100.00;61272.81;5172323;28;20043;-79
2022/09/22 01:22:34;;;;;;;17.00;14.03;;;;;;;-150.27;100.00;61272.81;5181223;28;20038;-79
2022/09/22 01:25:19;;;;;;;15.30;13.63;;;;;;;-150.27;100.00;61272.81;5192444;28;20030;-79
2022/09/22 01:28:15;;;;;;;14.65;13.23;;;;;;;-150.27;100.00;61272.81;5191495;28;20038;-81
2022/09/22 01:30:56;;;;;;;18.23;14.00;;;;;;;-150.27;100.00;61272.81;5193907;28;20030;-81
2022/09/22 01:33:30;;;;;;;21.93;16.00;;;;;;;-150.27;100.00;61272.81;5212421;28;20561;-78
2022/09/22 01:36:06;;;;;;;21.35;14.90;;;;;;;-150.27;100.00;61272.81;5222638;28;20041;-76
2022/09/22 01:38:53;;;;;;;19.80;15.37;;;;;;;-150.27;100.00;61272.81;5237308;28;20060;-75
2022/09/22 01:41:36;;;;;;;19.47;15.30;;;;;;;-150.27;100.00;61272.81;5228021;28;20065;-82
2022/09/22 01:44:15;;;;;;;17.67;15.10;;;;;;;-150.27;100.00;61272.81;5208076;28;20010;-78
2022/09/22 01:46:56;;;;;;;15.83;14.17;;;;;;;-150.27;100.00;61272.81;5219350;28;20034;-76
2022/09/22 01:49:31;;;;;;;19.77;14.10;;;;;;;-150.27;100.00;61272.81;5207843;28;20113;-77
2022/09/22 01:52:08;;;;;;;18.13;14.80;;;;;;;-150.27;100.00;61272.81;5197768;28;20022;-81
2022/09/22 01:54:44;;;;;;;15.43;13.83;;;;;;;-150.27;100.00;61272.81;5197980;28;20034;-80
2022/09/22 01:57:22;;;;;;;16.27;14.47;;;;;;;-150.27;100.00;61272.81;5196910;28;20030;-81
2022/09/22 02:00:00;;;;;;;18.83;15.00;;;;;;;-150.27;100.00;61272.81;5194544;28;20506;-77
2022/09/22 02:02:37;;;;;;;17.10;15.47;;;;;;;-150.27;100.00;61272.81;5195274;28;20041;-82
2022/09/22 02:05:17;;;;;;;16.30;13.27;;;;;;;-150.27;100.00;61272.81;5208045;28;20021;-80
2022/09/22 02:07:53;;;;;;;17.47;15.33;;;;;;;-150.27;100.00;61272.81;5212336;28;20107;-81
2022/09/22 02:10:32;;;;;;;16.70;14.83;;;;;;;-150.27;100.00;61272.81;5213662;28;20029;-74
2022/09/22 02:13:03;;;;;;;15.57;14.07;;;;;;;-150.27;100.00;61272.81;5212277;28;20026;-74
2022/09/22 02:18:30;;;;;;;15.67;13.33;;;;;;;-150.27;100.00;61272.81;5181062;28;20589;-81
2022/09/22 02:21:03;;;;;;;16.30;14.70;;;;;;;-150.27;100.00;61272.81;5180906;28;20031;-74
2022/09/22 02:23:34;;;;;;;16.73;14.77;;;;;;;-150.27;100.00;61272.81;5173778;28;20077;-81
2022/09/22 02:26:07;;;;;;;16.97;15.27;;;;;;;-150.27;100.00;61272.81;5213169;28;20496;-74
2022/09/22 02:28:42;;;;;;;18.00;15.33;;;;;;;-150.27;100.00;61272.81;5213031;28;20092;-80
2022/09/22 02:31:15;;;;;;;18.90;15.30;;;;;;;-150.27;100.00;61272.81;5211591;28;20657;-80
2022/09/22 02:33:48;;;;;;;17.60;15.37;;;;;;;-150.27;100.00;61272.81;5208684;28;20034;-79
2022/09/22 02:36:31;;;;;;;17.27;15.47;;;;;;;-150.27;100.00;61272.81;5190559;28;20034;-78
2022/09/22 02:39:16;;;;;;;18.17;14.93;;;;;;;-150.27;100.00;61272.81;5191338;28;20205;-76
2022/09/22 02:42:25;;;;;;;17.90;16.05;;;;;;;-150.27;100.00;61272.81;5190873;28;20796;-76
2022/09/22 02:45:17;;;;;;;18.17;15.50;;;;;;;-150.27;100.00;61272.81;5201942;28;20535;-81
2022/09/22 02:47:58;;;;;;;18.30;16.50;;;;;;;-150.27;100.00;61272.81;5212533;28;20377;-73
2022/09/22 02:50:30;;;;;;;21.17;17.33;;;;;;;-150.27;100.00;61272.81;5212263;28;20033;-81
2022/09/22 02:53:09;;;;;;;17.03;15.17;;;;;;;-150.27;100.00;61272.81;5210618;28;20451;-80
2022/09/22 02:55:42;;;;;;;17.43;15.73;;;;;;;-150.27;100.00;61272.81;5203121;28;20026;-78
2022/09/22 02:58:15;;;;;;;18.63;16.63;;;;;;;-150.27;100.00;61272.81;5192534;28;20575;-76
2022/09/22 03:00:47;;;;;;;20.37;16.47;;;;;;;-150.27;100.00;61272.81;5191598;28;20038;-78
2022/09/22 03:03:18;;;;;;;16.50;14.80;;;;;;;-150.27;100.00;61272.81;5191989;28;20034;-78
2022/09/22 03:05:49;;;;;;;18.73;16.33;;;;;;;-150.27;100.00;61272.81;5200307;28;20057;-80
2022/09/22 03:08:21;;;;;;;19.93;17.87;;;;;;;-150.27;100.00;61272.81;5212545;28;20029;-81
2022/09/22 03:10:52;;;;;;;20.73;18.60;;;;;;;-150.27;100.00;61272.81;5211297;28;20412;-75
2022/09/22 03:13:23;;;;;;;20.37;18.33;;;;;;;-150.27;100.00;61272.81;5212150;28;20060;-77
2022/09/22 03:15:55;;;;;;;20.70;18.43;;;;;;;-150.27;100.00;61272.81;5208636;28;20056;-78
2022/09/22 03:18:26;;;;;;;20.73;18.73;;;;;;;-150.27;100.00;61272.81;5210542;28;20168;-76
2022/09/22 03:20:57;;;;;;;20.77;18.20;;;;;;;-150.27;100.00;61272.81;5211012;28;20136;-80
2022/09/22 03:23:28;;;;;;;21.17;18.87;;;;;;;-150.27;100.00;61272.81;5202510;28;20094;-79
2022/09/22 03:26:00;;;;;;;22.57;20.23;;;;;;;-150.27;100.00;61272.81;5191501;28;20061;-78
2022/09/22 03:28:31;;;;;;;20.50;18.03;;;;;;;-150.27;100.00;61272.81;5191265;28;20855;-76
2022/09/22 03:31:02;;;;;;;21.03;18.70;;;;;;;-150.27;100.00;61272.81;5192095;28;20030;-79
2022/09/22 03:33:33;;;;;;;22.60;17.90;;;;;;;-150.27;100.00;61272.81;5199194;28;20037;-80
2022/09/22 03:36:05;;;;;;;20.63;18.73;;;;;;;-150.27;100.00;61272.81;5205706;28;20026;-76
2022/09/22 03:38:36;;;;;;;22.10;18.23;;;;;;;-150.27;100.00;61272.81;5189637;28;20049;-74
2022/09/22 03:41:08;;;;;;;19.60;17.53;;;;;;;-150.27;100.00;61272.81;5189095;28;20065;-81
2022/09/22 03:43:39;;;;;;;21.40;18.50;;;;;;;-150.27;100.00;61272.81;5191541;28;20105;-73
2022/09/22 03:46:12;;;;;;;19.87;17.83;;;;;;;-150.27;100.00;61272.81;5195244;28;20532;-81
2022/09/22 03:48:44;;;;;;;18.93;16.93;;;;;;;-150.27;100.00;61272.81;5211101;28;20041;-79
2022/09/22 03:51:15;;;;;;;18.93;17.13;;;;;;;-150.27;100.00;61272.81;5200668;28;20045;-81
2022/09/22 03:53:46;;;;;;;18.17;16.27;;;;;;;-150.27;100.00;61272.81;5207081;28;20044;-79
2022/09/22 03:56:18;;;;;;;19.90;17.80;;;;;;;-150.27;100.00;61272.81;5200977;28;20026;-77
2022/09/22 03:58:49;;;;;;;21.90;17.00;;;;;;;-150.27;100.00;61272.81;5190940;28;20034;-80
2022/09/22 04:01:20;;;;;;;19.47;17.43;;;;;;;-150.27;100.00;61272.81;5183478;28;20565;-80
2022/09/22 04:03:52;;;;;;;21.73;16.83;;;;;;;-150.27;100.00;61272.81;5203105;28;20070;-76
2022/09/22 04:06:23;;;;;;;18.13;16.17;;;;;;;-150.27;100.00;61272.81;5198991;28;20038;-78
2022/09/22 04:08:54;;;;;;;19.40;17.60;;;;;;;-150.27;100.00;61272.81;5189768;28;20134;-77
2022/09/22 04:11:26;;;;;;;19.50;17.53;;;;;;;-150.27;100.00;61272.81;5190415;28;20035;-77
2022/09/22 04:13:58;;;;;;;21.50;17.47;;;;;;;-150.27;100.00;61272.81;5207442;28;20125;-80
2022/09/22 04:16:30;;;;;;;21.23;16.37;;;;;;;-150.27;100.00;61272.81;5207281;28;20053;-80
2022/09/22 04:19:03;;;;;;;20.10;16.90;;;;;;;-150.27;100.00;61272.81;5191066;28;20401;-81
2022/09/22 04:21:35;;;;;;;18.73;16.80;;;;;;;-150.27;100.00;61272.81;5190236;28;20027;-80
2022/09/22 04:24:10;;;;;;;18.77;16.77;;;;;;;-150.27;100.00;61272.81;5194863;28;20093;-80
2022/09/22 04:26:42;;;;;;;20.77;17.43;;;;;;;-150.27;100.00;61272.81;5198387;28;20470;-80
2022/09/22 04:29:13;;;;;;;20.63;18.37;;;;;;;-150.27;100.00;61272.81;5215256;28;20117;-78
2022/09/22 04:31:44;;;;;;;18.57;16.17;;;;;;;-150.27;100.00;61272.81;5214429;28;20033;-73
2022/09/22 04:34:15;;;;;;;20.27;17.23;;;;;;;-150.27;100.00;61272.81;5215373;28;20104;-80
2022/09/22 04:36:47;;;;;;;18.77;16.87;;;;;;;-150.27;100.00;61272.81;5205215;28;20036;-81
2022/09/22 04:39:18;;;;;;;21.30;17.13;;;;;;;-150.27;100.00;61272.81;5214616;28;20026;-73
2022/09/22 04:41:49;;;;;;;22.87;17.30;;;;;;;-150.27;100.00;61272.81;5209771;28;20036;-77
2022/09/22 04:44:21;;;;;;;20.87;16.27;;;;;;;-150.27;100.00;61272.81;5191872;28;20477;-75
2022/09/22 04:46:54;;;;;;;21.67;17.33;;;;;;;-150.27;100.00;61272.81;5199010;28;20532;-75
2022/09/22 04:49:25;;;;;;;18.60;16.30;;;;;;;-150.27;100.00;61272.81;5213511;28;20026;-75
2022/09/22 04:51:57;;;;;;;19.10;16.27;;;;;;;-150.27;100.00;61272.81;5212693;28;20022;-79
2022/09/22 04:54:28;;;;;;;19.57;17.47;;;;;;;-150.27;100.00;61272.81;5193553;28;20068;-76
2022/09/22 04:57:00;;;;;;;22.23;17.43;;;;;;;-150.27;100.00;61272.81;5197919;28;20112;-73
2022/09/22 04:59:31;;;;;;;19.90;17.17;;;;;;;-150.27;100.00;61272.81;5214321;28;20536;-74
2022/09/22 05:02:02;;;;;;;18.67;16.67;;;;;;;-150.27;100.00;61272.81;5213311;28;20061;-75
2022/09/22 05:04:34;;;;;;;21.63;16.80;;;;;;;-150.27;100.00;61272.81;5213921;28;20053;-75
2022/09/22 05:07:05;;;;;;;21.50;16.67;;;;;;;-150.27;100.00;61272.81;5211563;28;20451;-76
2022/09/22 05:09:37;;;;;;;17.47;15.67;;;;;;;-150.27;100.00;61272.81;5195108;28;20026;-76
2022/09/22 05:12:08;;;;;;;19.13;15.30;;;;;;;-150.27;100.00;61272.81;5196346;28;20084;-77
2022/09/22 05:14:41;;;;;;;17.97;15.77;;;;;;;-150.27;100.00;61272.81;5196172;28;20047;-77
2022/09/22 05:17:12;;;;;;;18.27;16.10;;;;;;;-150.27;100.00;61272.81;5200837;28;20110;-74
2022/09/22 05:19:45;;;;;;;17.87;15.70;;;;;;;-150.27;100.00;61272.81;5201065;28;20105;-77
2022/09/22 05:22:16;;;;;;;16.87;15.13;;;;;;;-150.27;100.00;61272.81;5199162;28;20519;-75
2022/09/22 05:24:48;;;;;;;18.47;15.93;;;;;;;-150.27;100.00;61272.81;5188377;28;20030;-77
2022/09/22 05:27:19;;;;;;;19.20;15.17;;;;;;;-150.27;100.00;61272.81;5203968;28;20042;-77
2022/09/22 05:29:50;;;;;;;17.17;15.47;;;;;;;-150.27;100.00;61272.81;5193058;28;20117;-76
2022/09/22 05:32:22;;;;;;;20.90;16.20;;;;;;;-150.27;100.00;61272.81;5193096;28;20037;-77
2022/09/22 05:34:53;;;;;;;18.57;16.67;;;;;;;-150.27;100.00;61272.81;5194208;28;20030;-72
2022/09/22 05:37:24;;;;;;;18.50;16.53;;;;;;;-150.27;100.00;61272.81;5202380;28;20112;-78
2022/09/22 05:39:56;;;;;;;25.27;16.57;;;;;;;-150.27;100.00;61272.81;5193986;28;20038;-81
2022/09/22 05:42:27;;;;;;;17.00;15.20;;;;;;;-150.27;100.00;61272.81;5180493;28;20122;-77
2022/09/22 05:44:58;;;;;;;17.43;15.27;;;;;;;-150.27;100.00;61272.81;5191154;28;20022;-80
2022/09/22 05:47:32;;;;;;;17.67;16.00;;;;;;;-150.27;100.00;61272.81;5195482;28;20030;-79
2022/09/22 05:50:06;;;;;;;21.42;15.82;;;;;;;-150.27;100.00;61272.81;5192603;28;20109;-78
2022/09/22 05:52:38;;;;;;;19.02;16.42;;;;;;;-150.27;100.00;61272.81;5189700;28;20026;-79
2022/09/22 05:55:11;;;;;;;17.97;16.00;;;;;;;-150.27;100.00;61272.81;5192590;28;20088;-76
2022/09/22 05:57:42;;;;;;;24.77;16.70;;;;;;;-150.27;100.00;61272.81;5191726;28;20030;-79
2022/09/22 06:00:14;;;;;;;18.40;15.30;;;;;;;-150.27;100.00;61272.81;5191216;28;20481;-80
2022/09/22 06:02:45;;;;;;;20.33;17.00;;;;;;;-150.27;100.00;61272.81;5185907;28;20030;-80
2022/09/22 06:05:16;;;;;;;24.63;17.73;;;;;;;-150.27;100.00;61272.81;5190960;28;20038;-77
2022/09/22 06:07:56;;;;;;;19.63;16.47;;;;;;;-150.27;100.00;61272.81;5208119;28;20461;-77
2022/09/22 06:10:30;;;;;;;18.17;16.17;;;;;;;-150.27;100.00;61272.81;5200651;28;20396;-81
2022/09/22 06:13:03;;;;;;;21.73;16.73;;;;;;;-150.27;100.00;61272.81;5191539;28;20088;-78
2022/09/22 06:15:36;;;;;;;19.08;16.73;;;;;;;-150.27;100.00;61272.81;5192285;28;20054;-78
2022/09/22 06:18:10;;;;;;;19.77;15.00;;;;;;;-150.27;100.00;61272.81;5196992;28;20034;-78
2022/09/22 06:20:42;;;;;;;21.20;16.10;;;;;;;-150.27;100.00;61272.81;5200177;28;20084;-77
2022/09/22 06:23:14;;;;;;;18.73;15.97;;;;;;;-150.27;100.00;61272.81;5193905;28;20034;-80
2022/09/22 06:25:45;;;;;;;22.20;17.40;;;;;;;-150.27;100.00;61272.81;5192735;28;20121;-78
2022/09/22 06:28:16;;;;;;;20.43;16.40;;;;;;;-150.27;100.00;61272.81;5198145;28;20101;-76
2022/09/22 06:30:50;;;;;;;20.73;15.97;;;;;;;-150.27;100.00;61272.81;5193393;28;20078;-77
2022/09/22 06:33:22;;;;;;;22.00;16.70;;;;;;;-150.27;100.00;61272.81;5194140;28;20022;-80
2022/09/22 06:35:55;;;;;;;18.93;16.57;;;;;;;-150.27;100.00;61272.81;5209233;28;20056;-83
2022/09/22 06:38:30;;;;;;;22.20;16.30;;;;;;;-150.27;100.00;61272.81;5213026;28;20026;-82
2022/09/22 06:41:05;;;;;;;20.77;18.03;;;;;;;-150.27;100.00;61272.81;5213035;28;20033;-78
2022/09/22 06:43:36;;;;;;;19.80;17.70;;;;;;;-150.27;100.00;61272.81;5207868;28;20048;-80
2022/09/22 06:46:09;;;;;;;22.40;16.70;;;;;;;-150.27;100.00;61272.81;5206258;28;20556;-77
2022/09/22 06:48:41;;;;;;;22.27;16.00;;;;;;;-150.27;100.00;61272.81;5208885;28;20112;-82
2022/09/22 06:51:12;;;;;;;25.77;16.80;;;;;;;-150.27;100.00;61272.81;5212676;28;20211;-82
2022/09/22 06:53:43;;;;;;;27.03;17.27;;;;;;;-150.27;100.00;61272.81;5199632;28;20050;-80
2022/09/22 06:56:18;;;;;;;20.80;17.87;;;;;;;-150.27;100.00;61272.81;5191815;28;20022;-77
2022/09/22 06:58:50;;;;;;;19.03;16.27;;;;;;;-150.27;100.00;61272.81;5192436;28;20045;-79
2022/09/22 07:01:22;;;;;;;20.90;17.30;;;;;;;-150.27;100.00;61272.81;5191435;28;20026;-82
2022/09/22 07:03:54;;;;;;;19.37;17.37;;;;;;;-150.27;100.00;61272.81;5191639;28;20688;-81
2022/09/22 07:06:25;;;;;;;22.57;17.20;;;;;;;-150.27;100.00;61272.81;5191017;28;20030;-76
2022/09/22 07:08:58;;;;;;;22.23;16.83;;;;;;;-150.27;100.00;61272.81;5192700;28;20042;-73
2022/09/22 07:11:29;;;;;;;22.50;16.30;;;;;;;-150.27;100.00;61272.81;5192106;28;20027;-74
2022/09/22 07:14:02;;;;;;;22.90;17.67;;;;;;;-150.27;100.00;61272.81;5191831;28;20571;-76
2022/09/22 07:16:34;;;;;;;29.63;17.63;;;;;;;-150.27;100.00;61272.81;5191752;28;20775;-75
2022/09/22 07:19:06;;;;;;;21.07;16.17;;;;;;;-150.27;100.00;61272.81;5192726;28;20030;-74
2022/09/22 07:21:39;;;;;;;23.13;15.97;;;;;;;-150.27;100.00;61272.81;5190567;28;20041;-73
2022/09/22 07:24:10;;;;;;;20.90;15.73;;;;;;;-150.27;100.00;61272.81;5192102;28;20477;-72
2022/09/22 07:26:42;;;;;;;22.87;15.93;;;;;;;-150.27;100.00;61272.81;5187294;28;20046;-83
2022/09/22 07:29:15;;;;;;;21.03;15.40;;;;;;;-150.27;100.00;61272.81;5172261;28;20031;-86
2022/09/22 07:31:46;;;;;;;18.37;15.53;;;;;;;-150.27;100.00;61272.81;5186988;28;20019;-85
2022/09/22 07:34:18;;;;;;;18.50;14.07;;;;;;;-150.27;100.00;61272.81;5170882;28;20498;-76
2022/09/22 07:36:49;;;;;;;20.77;14.73;;;;;;;-150.27;100.00;61272.81;5170473;28;20022;-74
2022/09/22 07:39:22;;;;;;;17.40;13.47;;;;;;;-150.27;100.00;61272.81;5153706;28;20382;-75
2022/09/22 07:41:53;;;;;;;17.47;14.50;;;;;;;-150.27;100.00;61272.81;5172154;28;20117;-75
2022/09/22 07:47:14;;;;;;;17.80;12.37;;;;;;;-150.27;100.00;61272.81;5171486;28;20038;-75
2022/09/22 07:49:45;;;;;;;17.87;11.83;;;;;;;-150.27;100.00;61272.81;5170958;28;20101;-76
2022/09/22 07:52:16;;;;;;;17.37;10.00;;;;;;;-150.27;100.00;61272.81;5170305;28;20609;-76
2022/09/22 07:54:48;;;;;;;15.97;9.57;;;;;;;-150.27;100.00;61272.81;5171405;28;20035;-75
2022/09/22 07:57:19;;;;;;;20.60;8.60;;;;;;;-150.27;100.00;61272.81;5172090;28;20409;-76
2022/09/22 07:59:50;;;;;;;10.47;6.57;;;;;;;-150.27;100.00;61272.81;5176233;28;20397;-76
2022/09/22 08:02:27;;;;;;;9.67;6.53;;;;;;;-150.27;100.00;61272.81;5173693;28;20130;-76
2022/09/22 08:05:00;;;;;;;12.30;6.63;;;;;;;-150.27;100.00;61272.81;5174856;28;20451;-76
2022/09/22 08:07:36;;;;;;;9.03;6.20;;;;;;;-150.27;100.00;61272.81;5174941;28;20640;-76
2022/09/22 08:10:09;;;;;;;8.27;6.13;;;;;;;-150.27;100.00;61272.81;5175536;28;20374;-76
2022/09/22 08:12:41;;;;;;;9.38;6.13;;;;;;;-150.27;100.00;61272.81;5175044;28;20019;-76
2022/09/22 08:15:13;;;;;;;11.57;6.93;;;;;;;-150.27;100.00;61272.81;5175896;28;20535;-76
2022/09/22 08:17:44;;;;;;;9.15;6.03;;;;;;;-150.27;100.00;61272.81;5173658;28;20023;-76
2022/09/22 08:20:16;;;;;;;13.00;6.63;;;;;;;-150.27;100.00;61272.81;5189411;28;20031;-76
2022/09/22 08:22:52;;;;;;;13.90;5.50;;;;;;;-150.27;100.00;61272.81;5194210;28;20049;-76
2022/09/22 08:25:24;;;;;;;7.32;5.35;;;;;;;-150.27;100.00;61272.81;5195162;28;20123;-77
2022/09/22 08:27:55;;;;;;;10.27;5.35;;;;;;;-150.27;100.00;61272.81;5195505;28;20064;-76
2022/09/22 08:30:26;;;;;;;7.75;5.25;;;;;;;-150.27;100.00;61272.81;5193661;28;20476;-76
2022/09/22 08:32:59;;;;;;;10.07;5.38;;;;;;;-150.27;100.00;61272.81;5195533;28;20493;-77
2022/09/22 08:35:30;;;;;;;7.78;5.60;;;;;;;-150.27;100.00;61272.81;5193234;28;20033;-76
2022/09/22 08:38:01;;;;;;;7.03;4.45;;;;;;;-150.27;100.00;61272.81;5195031;28;20031;-77
2022/09/22 08:40:33;;;;;;;9.15;4.97;;;;;;;-150.27;100.00;61272.81;5196464;28;20026;-76
2022/09/22 08:43:09;;;;;;;9.05;5.13;;;;;;;-150.27;100.00;61272.81;5198444;28;20037;-76
2022/09/22 08:45:45;;;;;;;11.38;4.57;;;;;;;-150.27;100.00;61272.81;5198639;28;20087;-75
2022/09/22 08:54:11;;;;;;;9.85;4.20;;;;;;;-150.27;100.00;61272.81;5199127;28;20478;-77
2022/09/22 08:57:09;;;;;;;7.25;3.88;;;;;;;-150.27;100.00;61272.81;5196989;28;20031;-78
2022/09/22 08:59:59;;;;;;;7.90;3.88;;;;;;;-150.27;100.00;61272.81;5195884;28;20432;-77
2022/09/22 09:02:37;;;;;;;7.22;3.90;;;;;;;-150.27;100.00;61272.81;5195158;28;20034;-78
2022/09/22 09:05:37;;;;;;;9.98;3.92;;;;;;;-150.27;100.00;61272.81;5193256;28;20035;-78
2022/09/22 09:08:18;;;;;;;12.23;4.00;;;;;;;-150.27;100.00;61272.81;5194701;28;20033;-77
2022/09/22 09:11:36;;;;;;;6.95;3.97;;;;;;;-150.27;100.00;61272.81;5193862;28;20030;-77
2022/09/22 09:14:53;;;;;;;6.80;3.85;;;;;;;-150.27;100.00;61272.81;5179716;28;20433;-77
2022/09/22 09:17:29;;;;;;;5.32;3.78;;;;;;;-150.27;100.00;61272.81;5187075;28;20046;-77
2022/09/22 09:20:15;;;;;;;6.63;3.70;;;;;;;-150.27;100.00;61272.81;5192819;28;20026;-77
2022/09/22 09:22:54;;;;;;;6.47;3.25;;;;;;;-150.27;100.00;61272.81;5194732;28;20035;-78
2022/09/22 09:25:36;;;;;;;3.90;2.35;;;;;;;-150.27;100.00;61272.81;5194369;28;20038;-78
2022/09/22 09:28:36;;;;;;;4.72;2.08;;;;;;;-150.27;100.00;61272.81;5195073;28;20760;-78
2022/09/22 09:31:24;;;;;;;5.25;2.30;;;;;;;-150.27;100.00;61272.81;5187769;28;20042;-77
2022/09/22 09:34:02;;;;;;;4.72;2.22;;;;;;;-150.27;100.00;61272.81;5194544;28;20621;-77
2022/09/22 09:36:40;;;;;;;6.47;2.63;;;;;;;-150.27;100.00;61272.81;5193412;28;20062;-77
2022/09/22 09:39:30;;;;;;;7.97;2.05;;;;;;;-150.27;100.00;61272.81;5193727;28;20026;-78
2022/09/22 09:42:13;;;;;;;5.25;1.80;;;;;;;-150.27;100.00;61272.81;5194119;28;20030;-78
2022/09/22 09:44:50;;;;;;;6.80;2.00;;;;;;;-150.27;100.00;61272.81;5194236;28;20033;-77
2022/09/22 09:47:54;;;;;;;5.18;1.98;;;;;;;-150.27;100.00;61272.81;5193080;28;20045;-79
2022/09/22 09:50:30;;;;;;;7.15;2.20;;;;;;;-150.27;100.00;61272.81;5191961;28;20036;-78
2022/09/22 09:53:02;;;;;;;2.45;1.40;;;;;;;-150.27;100.00;61272.81;5193672;28;20038;-78
2022/09/22 09:55:34;;;;;;;4.80;1.63;;;;;;;-150.27;100.00;61272.81;5193391;28;20049;-79
2022/09/22 09:58:09;;;;;;;4.43;1.25;;;;;;;-150.27;100.00;61272.81;5193917;28;20023;-78
2022/09/22 10:00:59;;;;;;;2.92;1.65;;;;;;;-150.27;100.00;61272.81;5192999;28;20053;-77
2022/09/22 10:03:39;;;;;;;3.97;1.77;;;;;;;-150.27;100.00;61272.81;5194099;28;20030;-77
2022/09/22 10:06:11;;;;;;;3.75;1.67;;;;;;;-150.27;100.00;61272.81;5191868;28;20044;-77
2022/09/22 10:08:46;;;;;;;3.33;1.70;;;;;;;-150.27;100.00;61272.81;5193423;28;20027;-78
2022/09/22 10:11:31;;;;;;;5.90;1.70;;;;;;;-150.27;100.00;61272.81;5192616;28;20026;-77
2022/09/22 10:14:02;;;;;;;3.47;1.70;;;;;;;-150.27;100.00;61272.81;5191800;28;20130;-78
2022/09/22 10:16:35;;;;;;;3.58;1.85;;;;;;;-150.27;100.00;61272.81;5191576;28;20125;-78
2022/09/22 10:19:27;;;;;;;6.57;2.15;;;;;;;-150.27;100.00;61272.81;5191496;28;20022;-78
2022/09/22 10:22:23;;;;;;;3.08;1.50;;;;;;;-150.27;100.00;61272.81;5190899;28;20034;-78
2022/09/22 10:24:57;;;;;;;4.68;1.83;;;;;;;-150.27;100.00;61272.81;5191519;28;20109;-78
2022/09/22 10:27:30;;;;;;;5.93;2.28;;;;;;;-150.27;100.00;61272.81;5192705;28;20030;-78
2022/09/22 10:30:21;;;;;;;3.13;1.88;;;;;;;-150.27;100.00;61272.81;5191183;28;20462;-78
2022/09/22 10:33:20;;;;;;;2.53;1.63;;;;;;;-150.27;100.00;61272.81;5191497;28;20038;-78
2022/09/22 10:35:53;;;;;;;3.03;1.60;;;;;;;-150.27;100.00;61272.81;5192113;28;20138;-77
2022/09/22 10:38:30;;;;;;;3.45;1.70;;;;;;;-150.27;100.00;61272.81;5192907;28;20178;-74
2022/09/22 10:41:07;;;;;;;2.92;1.95;;;;;;;-150.27;100.00;61272.81;5192595;28;20034;-75
2022/09/22 10:43:59;;;;;;;6.13;1.70;;;;;;;-150.27;100.00;61272.81;5191938;28;20576;-75
2022/09/22 10:47:05;;;;;;;4.00;1.40;;;;;;;-150.27;100.00;61272.81;5190238;28;20122;-75
2022/09/22 10:49:39;;;;;;;4.80;1.38;;;;;;;-150.27;100.00;61272.81;5187510;28;20037;-75
2022/09/22 10:52:14;;;;;;;2.88;1.20;;;;;;;-150.27;100.00;61272.81;5192285;28;20030;-76
2022/09/22 10:55:13;;;;;;;2.15;1.27;;;;;;;-150.27;100.00;61272.81;5191947;28;20028;-76
2022/09/22 10:58:06;;;;;;;2.42;1.30;;;;;;;-150.27;100.00;61272.81;5192181;28;20042;-75
2022/09/22 11:00:39;;;;;;;2.58;1.85;;;;;;;-150.27;100.00;61272.81;5189865;28;20401;-75
2022/09/22 11:03:55;;;;;;;2.90;1.70;;;;;;;-150.27;100.00;61272.81;5188642;28;20751;-74
2022/09/22 11:13:06;;;;;;;3.42;1.40;;;;;;;-150.27;100.00;61272.81;5191260;28;20046;-74
2022/09/22 11:15:59;;;;;;;2.45;1.10;;;;;;;-150.27;100.00;61272.81;5188886;28;20402;-74
2022/09/22 11:19:16;;;;;;;4.13;1.52;;;;;;;-150.27;100.00;61272.81;5189935;28;20512;-75
2022/09/22 11:22:18;;;;;;;4.60;1.73;;;;;;;-150.27;100.00;61272.81;5190428;28;20034;-75
2022/09/22 11:25:02;;;;;;;2.30;1.50;;;;;;;-150.27;100.00;61272.81;5190596;28;20042;-74
2022/09/22 11:27:42;;;;;;;6.00;1.65;;;;;;;-150.27;100.00;61272.81;5191304;28;20034;-73
2022/09/22 11:30:20;;;;;;;4.78;1.95;;;;;;;-150.27;100.00;61272.81;5189843;28;20033;-74
2022/09/22 11:33:12;;;;;;;4.85;1.70;;;;;;;-150.27;100.00;61272.81;5191460;28;20112;-73
2022/09/22 11:35:56;;;;;;;4.45;2.28;;;;;;;-150.27;100.00;61272.81;5188860;28;20112;-76
2022/09/22 11:38:53;;;;;;;4.00;1.63;;;;;;;-150.27;100.00;61272.81;5191293;28;20816;-78
2022/09/22 11:41:29;;;;;;;3.38;1.58;;;;;;;-150.27;100.00;61272.81;5190771;28;20045;-81
2022/09/22 11:44:34;;;;;;;3.58;1.52;;;;;;;-150.27;100.00;61272.81;5189782;28;20475;-79
2022/09/22 11:47:21;;;;;;;4.90;1.42;;;;;;;-150.27;100.00;61272.81;5189353;28;20064;-79
2022/09/22 11:50:04;;;;;;;3.60;1.33;;;;;;;-150.27;100.00;61272.81;5190383;28;20058;-79
2022/09/22 11:53:14;;;;;;;3.53;1.70;;;;;;;-150.27;100.00;61272.81;5191398;28;20034;-79
2022/09/22 11:56:21;;;;;;;2.83;1.63;;;;;;;-150.27;100.00;61272.81;5193196;28;20042;-78
2022/09/22 11:58:56;;;;;;;4.63;1.30;;;;;;;-150.27;100.00;61272.81;5190237;28;20189;-78
2022/09/22 12:01:34;;;;;;;3.40;1.40;;;;;;;-150.27;100.00;61272.81;5190670;28;20023;-80